Time;durP1;ratioP1;P1;durP2;ratioP2;P2;SDS_P1;SDS_P2;PMS_P1;PMS_P2;Temp;Humidity;BMP_temperature;BMP_pressure;BME280_temperature;BME280_humidity;BME280_pressure;Samples;Min_cycle;Max_cycle;Signal;HPM_P1;HPM_P2
2021/01/12 00:01:45;;;;;;;29.53;15.67;;;;;;;;;;4811049;29;20213;-80
2021/01/12 00:04:13;;;;;;;30.00;15.27;;;;;;;;;;4806772;29;20243;-80
2021/01/12 00:06:42;;;;;;;30.47;16.37;;;;;;;;;;4819999;29;20213;-80
2021/01/12 00:09:11;;;;;;;28.90;16.33;;;;;;;;;;4790655;29;20239;-81
2021/01/12 00:11:39;;;;;;;28.13;15.90;;;;;;;;;;4804155;29;20224;-81
2021/01/12 00:14:30;;;;;;;29.77;15.87;;;;;;;;;;4806404;29;20581;-81
2021/01/12 00:16:55;;;;;;;26.23;15.73;;;;;;;;;;4803915;29;20212;-81
2021/01/12 00:19:23;;;;;;;31.70;16.33;;;;;;;;;;4806220;29;20227;-81
2021/01/12 00:21:50;;;;;;;28.20;15.37;;;;;;;;;;4803280;29;20214;-80
2021/01/12 00:24:19;;;;;;;27.67;15.63;;;;;;;;;;4819290;29;20400;-80
2021/01/12 00:26:48;;;;;;;25.03;15.07;;;;;;;;;;4803838;29;20208;-81
2021/01/12 00:29:17;;;;;;;27.30;15.03;;;;;;;;;;4793910;29;20224;-79
2021/01/12 00:31:47;;;;;;;30.00;15.27;;;;;;;;;;4816718;29;20215;-79
2021/01/12 00:34:15;;;;;;;27.03;16.43;;;;;;;;;;4812611;29;20228;-79
2021/01/12 00:36:46;;;;;;;27.87;15.07;;;;;;;;;;4815633;29;20623;-79
2021/01/12 00:39:14;;;;;;;27.53;15.17;;;;;;;;;;4824569;29;20592;-79
2021/01/12 00:41:46;;;;;;;28.33;15.70;;;;;;;;;;4795308;29;20204;-79
2021/01/12 00:44:14;;;;;;;26.97;16.40;;;;;;;;;;4826655;29;20240;-78
2021/01/12 00:46:44;;;;;;;26.83;15.50;;;;;;;;;;4827352;29;20188;-78
2021/01/12 00:49:12;;;;;;;29.67;15.87;;;;;;;;;;4823227;29;20220;-79
2021/01/12 00:51:41;;;;;;;25.60;15.63;;;;;;;;;;4815053;29;20656;-81
2021/01/12 00:54:10;;;;;;;29.13;15.77;;;;;;;;;;4815468;29;20260;-80
2021/01/12 00:56:49;;;;;;;28.60;16.17;;;;;;;;;;4803704;29;20227;-79
2021/01/12 00:59:17;;;;;;;28.70;15.30;;;;;;;;;;4813359;29;20216;-80
2021/01/12 01:01:45;;;;;;;27.17;15.50;;;;;;;;;;4818308;29;20205;-80
2021/01/12 01:04:15;;;;;;;28.43;15.63;;;;;;;;;;4784617;29;20228;-80
2021/01/12 01:06:44;;;;;;;26.70;15.23;;;;;;;;;;4817819;29;20216;-80
2021/01/12 01:09:12;;;;;;;25.27;14.63;;;;;;;;;;4808915;29;20231;-79
2021/01/12 01:11:41;;;;;;;28.83;16.23;;;;;;;;;;4802534;29;20559;-80
2021/01/12 01:14:10;;;;;;;25.30;14.83;;;;;;;;;;4783404;29;20599;-80
2021/01/12 01:16:38;;;;;;;27.37;15.03;;;;;;;;;;4802461;29;20213;-79
2021/01/12 01:19:07;;;;;;;25.20;14.87;;;;;;;;;;4804036;29;20224;-79
2021/01/12 01:21:34;;;;;;;30.07;15.60;;;;;;;;;;4817907;29;20561;-80
2021/01/12 01:24:03;;;;;;;28.37;15.80;;;;;;;;;;4803445;29;20248;-80
2021/01/12 01:26:31;;;;;;;27.47;15.30;;;;;;;;;;4803804;29;20233;-79
2021/01/12 01:28:59;;;;;;;28.03;16.17;;;;;;;;;;4802849;29;20236;-80
2021/01/12 01:31:35;;;;;;;25.60;14.90;;;;;;;;;;4803545;29;20220;-79
2021/01/12 01:34:04;;;;;;;28.03;14.57;;;;;;;;;;4798697;29;20241;-80
2021/01/12 01:36:31;;;;;;;25.40;14.93;;;;;;;;;;4803209;29;20209;-80
2021/01/12 01:39:00;;;;;;;27.37;15.23;;;;;;;;;;4803118;29;20227;-80
2021/01/12 01:41:28;;;;;;;25.97;16.23;;;;;;;;;;4803048;29;20213;-80
2021/01/12 01:43:56;;;;;;;25.27;15.37;;;;;;;;;;4816823;29;20246;-80
2021/01/12 01:46:24;;;;;;;27.97;14.97;;;;;;;;;;4816501;29;20895;-80
2021/01/12 01:48:53;;;;;;;27.63;15.47;;;;;;;;;;4802893;29;20605;-80
2021/01/12 01:51:20;;;;;;;28.17;15.37;;;;;;;;;;4808922;29;20205;-80
2021/01/12 01:53:49;;;;;;;25.87;15.00;;;;;;;;;;4816008;29;20241;-80
2021/01/12 01:56:17;;;;;;;24.77;14.70;;;;;;;;;;4802351;29;20297;-80
2021/01/12 01:58:44;;;;;;;26.17;14.77;;;;;;;;;;4802323;29;20213;-79
2021/01/12 02:01:13;;;;;;;25.30;13.97;;;;;;;;;;4815842;29;20200;-80
2021/01/12 02:03:50;;;;;;;24.20;13.83;;;;;;;;;;4802460;29;20252;-79
2021/01/12 02:06:20;;;;;;;22.47;12.97;;;;;;;;;;4800725;29;20227;-80
2021/01/12 02:08:55;;;;;;;23.87;13.70;;;;;;;;;;4796302;29;20219;-80
2021/01/12 02:11:24;;;;;;;22.10;12.87;;;;;;;;;;4784578;29;20577;-81
2021/01/12 02:13:56;;;;;;;21.87;12.47;;;;;;;;;;4801607;29;20229;-81
2021/01/12 02:16:25;;;;;;;20.80;11.30;;;;;;;;;;4801631;29;20221;-79
2021/01/12 02:18:54;;;;;;;18.83;11.67;;;;;;;;;;4816865;29;20212;-80
2021/01/12 02:21:24;;;;;;;20.43;11.93;;;;;;;;;;4801949;29;20597;-81
2021/01/12 02:23:54;;;;;;;20.37;12.23;;;;;;;;;;4816584;29;20606;-80
2021/01/12 02:26:23;;;;;;;18.83;11.73;;;;;;;;;;4815406;29;20225;-80
2021/01/12 02:28:51;;;;;;;24.40;13.53;;;;;;;;;;4801338;29;20212;-80
2021/01/12 02:31:19;;;;;;;23.57;12.63;;;;;;;;;;4801859;29;20248;-80
2021/01/12 02:33:48;;;;;;;18.03;11.70;;;;;;;;;;4816410;29;20236;-81
2021/01/12 02:36:20;;;;;;;23.63;13.10;;;;;;;;;;4816361;29;20239;-79
2021/01/12 02:38:49;;;;;;;20.80;12.33;;;;;;;;;;4816857;29;20210;-80
2021/01/12 02:41:18;;;;;;;20.47;12.10;;;;;;;;;;4802877;29;20213;-81
2021/01/12 02:43:47;;;;;;;20.87;13.03;;;;;;;;;;4803211;29;20640;-80
2021/01/12 02:46:16;;;;;;;20.73;12.27;;;;;;;;;;4818137;29;20212;-79
2021/01/12 02:48:44;;;;;;;24.63;13.57;;;;;;;;;;4804804;29;20223;-81
2021/01/12 02:51:12;;;;;;;22.97;13.43;;;;;;;;;;4803913;29;20231;-80
2021/01/12 02:53:40;;;;;;;22.53;12.93;;;;;;;;;;4801837;29;20247;-80
2021/01/12 02:56:08;;;;;;;23.07;12.73;;;;;;;;;;4801169;29;20659;-80
2021/01/12 02:58:36;;;;;;;23.50;13.77;;;;;;;;;;4787732;29;20213;-80
2021/01/12 03:01:05;;;;;;;23.00;13.67;;;;;;;;;;4801467;29;20208;-81
2021/01/12 03:03:33;;;;;;;23.10;13.23;;;;;;;;;;4818543;29;20235;-80
2021/01/12 03:06:02;;;;;;;26.07;14.33;;;;;;;;;;4801448;29;20224;-79
2021/01/12 03:08:30;;;;;;;23.90;14.03;;;;;;;;;;4802397;29;20212;-80
2021/01/12 03:10:58;;;;;;;25.73;14.20;;;;;;;;;;4786548;29;20240;-80
2021/01/12 03:13:26;;;;;;;24.87;14.40;;;;;;;;;;4816317;29;20228;-80
2021/01/12 03:15:55;;;;;;;24.70;14.70;;;;;;;;;;4802642;29;20208;-81
2021/01/12 03:18:23;;;;;;;23.53;14.37;;;;;;;;;;4802047;29;20219;-81
2021/01/12 03:20:51;;;;;;;31.27;15.90;;;;;;;;;;4802713;29;20220;-79
2021/01/12 03:23:19;;;;;;;25.50;14.43;;;;;;;;;;4816802;29;20241;-80
2021/01/12 03:25:48;;;;;;;25.70;14.67;;;;;;;;;;4802545;29;20224;-80
2021/01/12 03:28:16;;;;;;;27.07;14.23;;;;;;;;;;4814180;29;20208;-80
2021/01/12 03:30:44;;;;;;;27.17;14.67;;;;;;;;;;4802193;29;20246;-79
2021/01/12 03:33:13;;;;;;;25.03;14.63;;;;;;;;;;4816003;29;20245;-80
2021/01/12 03:35:40;;;;;;;27.60;15.53;;;;;;;;;;4801762;29;20224;-78
2021/01/12 03:38:09;;;;;;;29.50;15.90;;;;;;;;;;4815847;29;20229;-79
2021/01/12 03:40:37;;;;;;;25.57;14.90;;;;;;;;;;4812834;29;20217;-78
2021/01/12 03:43:04;;;;;;;26.83;15.77;;;;;;;;;;4825143;29;20247;-79
2021/01/12 03:45:32;;;;;;;27.13;15.57;;;;;;;;;;4802716;29;20216;-80
2021/01/12 03:48:00;;;;;;;25.50;14.43;;;;;;;;;;4818218;29;20220;-80
2021/01/12 03:50:29;;;;;;;26.90;14.87;;;;;;;;;;4806765;29;20229;-80
2021/01/12 03:52:57;;;;;;;27.20;15.23;;;;;;;;;;4803591;29;20251;-80
2021/01/12 03:55:25;;;;;;;28.23;15.90;;;;;;;;;;4820448;29;20223;-80
2021/01/12 03:57:53;;;;;;;28.20;16.43;;;;;;;;;;4805746;29;20608;-80
2021/01/12 04:00:22;;;;;;;28.00;15.90;;;;;;;;;;4820030;29;20208;-80
2021/01/12 04:02:49;;;;;;;26.60;14.87;;;;;;;;;;4818927;29;20242;-80
2021/01/12 04:05:18;;;;;;;28.67;14.37;;;;;;;;;;4827042;29;20396;-80
2021/01/12 04:07:46;;;;;;;26.27;15.07;;;;;;;;;;4822931;29;20204;-80
2021/01/12 04:10:14;;;;;;;26.60;14.30;;;;;;;;;;4817453;29;20605;-80
2021/01/12 04:12:42;;;;;;;26.40;15.30;;;;;;;;;;4805267;29;20239;-81
2021/01/12 04:15:10;;;;;;;27.17;15.10;;;;;;;;;;4806616;29;20222;-80
2021/01/12 04:17:38;;;;;;;23.60;14.57;;;;;;;;;;4804392;29;20216;-80
2021/01/12 04:20:07;;;;;;;24.50;13.83;;;;;;;;;;4805040;29;20687;-79
2021/01/12 04:22:36;;;;;;;24.57;14.03;;;;;;;;;;4803381;29;20253;-79
2021/01/12 04:25:06;;;;;;;29.73;14.63;;;;;;;;;;4803532;29;20223;-79
2021/01/12 04:27:34;;;;;;;26.00;13.90;;;;;;;;;;4818214;29;20423;-80
2021/01/12 04:30:02;;;;;;;22.80;13.50;;;;;;;;;;4790953;29;20236;-80
2021/01/12 04:32:29;;;;;;;25.63;14.97;;;;;;;;;;4804828;29;20236;-79
2021/01/12 04:34:57;;;;;;;24.97;13.67;;;;;;;;;;4818670;29;20585;-79
2021/01/12 04:37:25;;;;;;;25.70;13.17;;;;;;;;;;4803325;29;20213;-79
2021/01/12 04:39:52;;;;;;;22.03;12.97;;;;;;;;;;4805451;29;20220;-81
2021/01/12 04:42:21;;;;;;;22.77;12.50;;;;;;;;;;4818974;29;20697;-79
2021/01/12 04:44:48;;;;;;;22.20;12.80;;;;;;;;;;4817940;29;20225;-79
2021/01/12 04:47:16;;;;;;;24.77;13.57;;;;;;;;;;4802033;29;20212;-80
2021/01/12 04:49:44;;;;;;;27.93;13.37;;;;;;;;;;4804732;29;20217;-79
2021/01/12 04:52:11;;;;;;;25.13;13.00;;;;;;;;;;4803771;29;20237;-79
2021/01/12 04:54:39;;;;;;;21.03;12.77;;;;;;;;;;4818698;29;20204;-80
2021/01/12 04:57:07;;;;;;;20.47;12.83;;;;;;;;;;4815761;29;20208;-79
2021/01/12 04:59:35;;;;;;;24.93;12.83;;;;;;;;;;4821237;29;20210;-79
2021/01/12 05:02:03;;;;;;;21.80;12.23;;;;;;;;;;4804463;29;20711;-79
2021/01/12 05:04:33;;;;;;;20.60;12.13;;;;;;;;;;4802242;29;20659;-79
2021/01/12 05:07:00;;;;;;;20.37;12.23;;;;;;;;;;4804814;29;20220;-79
2021/01/12 05:09:28;;;;;;;20.93;12.20;;;;;;;;;;4829212;29;20220;-78
2021/01/12 05:11:57;;;;;;;22.57;13.07;;;;;;;;;;4797031;29;20608;-79
2021/01/12 05:14:26;;;;;;;19.67;11.87;;;;;;;;;;4836942;29;20228;-79
2021/01/12 05:16:55;;;;;;;21.50;13.33;;;;;;;;;;4816691;29;20220;-80
2021/01/12 05:19:25;;;;;;;20.13;11.30;;;;;;;;;;4805757;29;20526;-79
2021/01/12 05:21:57;;;;;;;18.57;10.77;;;;;;;;;;4804644;29;20222;-79
2021/01/12 05:24:26;;;;;;;19.80;10.73;;;;;;;;;;4803635;29;20236;-79
2021/01/12 05:27:04;;;;;;;20.67;11.77;;;;;;;;;;4802814;29;20226;-79
2021/01/12 05:29:34;;;;;;;20.03;11.37;;;;;;;;;;4819276;29;20615;-79
2021/01/12 05:32:03;;;;;;;20.80;12.57;;;;;;;;;;4819056;29;20240;-79
2021/01/12 05:34:35;;;;;;;21.20;11.40;;;;;;;;;;4813733;29;20216;-79
2021/01/12 05:37:05;;;;;;;18.17;9.93;;;;;;;;;;4822535;29;20217;-79
2021/01/12 05:39:38;;;;;;;20.57;11.17;;;;;;;;;;4820132;29;20225;-79
2021/01/12 05:42:07;;;;;;;21.40;11.13;;;;;;;;;;4822291;29;20234;-80
2021/01/12 05:44:36;;;;;;;19.33;10.30;;;;;;;;;;4805507;29;20216;-78
2021/01/12 05:47:05;;;;;;;18.80;11.07;;;;;;;;;;4812661;29;20212;-78
2021/01/12 05:49:33;;;;;;;18.20;10.53;;;;;;;;;;4823306;29;20212;-79
2021/01/12 05:52:01;;;;;;;18.17;9.33;;;;;;;;;;4823623;29;20224;-81
2021/01/12 05:54:31;;;;;;;15.30;9.53;;;;;;;;;;4824357;29;20231;-79
2021/01/12 05:57:00;;;;;;;15.67;10.20;;;;;;;;;;4807243;29;20250;-79
2021/01/12 05:59:29;;;;;;;14.37;9.50;;;;;;;;;;4822533;29;20240;-79
2021/01/12 06:01:58;;;;;;;16.30;9.43;;;;;;;;;;4812340;29;20209;-79
2021/01/12 06:04:27;;;;;;;16.17;10.07;;;;;;;;;;4803712;29;20249;-80
2021/01/12 06:06:56;;;;;;;16.47;10.17;;;;;;;;;;4815358;29;20786;-79
2021/01/12 06:09:24;;;;;;;17.20;9.70;;;;;;;;;;4800665;29;21581;-81
2021/01/12 06:11:53;;;;;;;16.83;9.23;;;;;;;;;;4800500;29;20228;-80
2021/01/12 06:14:22;;;;;;;17.27;9.67;;;;;;;;;;4800799;29;20231;-79
2021/01/12 06:16:50;;;;;;;15.37;9.37;;;;;;;;;;4801444;29;20218;-79
2021/01/12 06:19:19;;;;;;;13.80;9.20;;;;;;;;;;4812861;29;20219;-79
2021/01/12 06:22:23;;;;;;;12.63;7.53;;;;;;;;;;4806601;29;20711;-82
2021/01/12 06:24:58;;;;;;;14.23;8.27;;;;;;;;;;4821551;29;20297;-79
2021/01/12 06:27:29;;;;;;;13.13;7.90;;;;;;;;;;4834060;29;20217;-79
2021/01/12 06:30:01;;;;;;;15.50;8.60;;;;;;;;;;4819943;29;20208;-79
2021/01/12 06:32:30;;;;;;;13.57;8.33;;;;;;;;;;4829394;29;20228;-79
2021/01/12 06:35:00;;;;;;;15.37;8.77;;;;;;;;;;4824045;29;20209;-79
2021/01/12 06:37:35;;;;;;;12.90;8.17;;;;;;;;;;4824567;29;20195;-78
2021/01/12 06:40:04;;;;;;;14.80;8.10;;;;;;;;;;4826262;29;20209;-79
2021/01/12 06:42:33;;;;;;;13.83;7.97;;;;;;;;;;4807546;29;20233;-80
2021/01/12 06:45:01;;;;;;;13.40;8.10;;;;;;;;;;4798268;29;20220;-79
2021/01/12 06:47:32;;;;;;;15.60;8.37;;;;;;;;;;4789191;29;20625;-80
2021/01/12 06:50:08;;;;;;;11.80;7.63;;;;;;;;;;4806956;29;20216;-79
2021/01/12 06:52:45;;;;;;;13.17;7.77;;;;;;;;;;4803974;29;20235;-80
2021/01/12 06:55:15;;;;;;;13.07;7.67;;;;;;;;;;4810086;29;20220;-80
2021/01/12 06:57:44;;;;;;;14.93;7.67;;;;;;;;;;4799587;29;20229;-80
2021/01/12 07:00:14;;;;;;;13.63;7.37;;;;;;;;;;4796504;29;20223;-80
2021/01/12 07:02:43;;;;;;;10.20;7.17;;;;;;;;;;4810006;29;20237;-80
2021/01/12 07:05:12;;;;;;;13.87;7.60;;;;;;;;;;4798959;29;20225;-80
2021/01/12 07:07:43;;;;;;;13.33;8.13;;;;;;;;;;4791401;29;20227;-79
2021/01/12 07:10:13;;;;;;;11.37;7.10;;;;;;;;;;4810156;29;20731;-80
2021/01/12 07:12:42;;;;;;;12.17;6.83;;;;;;;;;;4800590;29;20242;-80
2021/01/12 07:15:11;;;;;;;12.47;7.40;;;;;;;;;;4812061;29;20207;-80
2021/01/12 07:17:41;;;;;;;12.67;7.33;;;;;;;;;;4811611;29;20219;-80
2021/01/12 07:20:12;;;;;;;13.07;7.60;;;;;;;;;;4821303;29;20230;-79
2021/01/12 07:22:41;;;;;;;12.07;7.10;;;;;;;;;;4810794;29;20238;-80
2021/01/12 07:25:11;;;;;;;13.33;7.50;;;;;;;;;;4816183;29;20198;-79
2021/01/12 07:27:39;;;;;;;10.53;6.70;;;;;;;;;;4815107;29;20582;-78
2021/01/12 07:30:08;;;;;;;10.43;6.60;;;;;;;;;;4824234;29;20230;-78
2021/01/12 07:32:38;;;;;;;11.70;6.70;;;;;;;;;;4815831;29;20240;-78
2021/01/12 07:35:09;;;;;;;11.53;6.43;;;;;;;;;;4800531;29;20211;-79
2021/01/12 07:37:39;;;;;;;14.70;7.17;;;;;;;;;;4791171;29;20219;-79
2021/01/12 07:40:13;;;;;;;11.70;6.60;;;;;;;;;;4811653;29;20227;-80
2021/01/12 07:42:50;;;;;;;11.27;6.47;;;;;;;;;;4799984;29;20254;-79
2021/01/12 07:45:19;;;;;;;11.33;7.13;;;;;;;;;;4799428;29;20234;-80
2021/01/12 07:47:52;;;;;;;13.40;7.50;;;;;;;;;;4816158;29;20230;-79
2021/01/12 07:50:20;;;;;;;11.60;7.10;;;;;;;;;;4804912;29;20541;-80
2021/01/12 07:52:48;;;;;;;11.57;6.70;;;;;;;;;;4795553;29;20251;-79
2021/01/12 07:55:17;;;;;;;12.63;6.13;;;;;;;;;;4804572;29;20216;-81
2021/01/12 07:57:45;;;;;;;10.40;5.93;;;;;;;;;;4792602;29;20333;-80
2021/01/12 08:00:15;;;;;;;11.63;6.47;;;;;;;;;;4800362;29;20215;-81
2021/01/12 08:02:46;;;;;;;10.37;6.20;;;;;;;;;;4816349;29;20227;-80
2021/01/12 08:05:16;;;;;;;10.43;6.40;;;;;;;;;;4802100;29;20207;-81
2021/01/12 08:07:45;;;;;;;9.73;6.13;;;;;;;;;;4800102;29;20254;-81
2021/01/12 08:10:13;;;;;;;11.53;6.80;;;;;;;;;;4815795;29;20200;-80
2021/01/12 08:13:05;;;;;;;9.20;5.80;;;;;;;;;;4823204;29;20248;-82
2021/01/12 08:15:35;;;;;;;10.67;5.60;;;;;;;;;;4822098;29;20206;-80
2021/01/12 08:18:05;;;;;;;12.07;6.47;;;;;;;;;;4818922;29;20195;-80
2021/01/12 08:20:33;;;;;;;9.27;5.60;;;;;;;;;;4825008;29;20219;-80
2021/01/12 08:23:02;;;;;;;10.87;5.83;;;;;;;;;;4825255;29;20239;-81
2021/01/12 08:25:33;;;;;;;10.67;5.80;;;;;;;;;;4809358;29;20212;-81
2021/01/12 08:28:03;;;;;;;9.00;5.97;;;;;;;;;;4808322;29;20224;-81
2021/01/12 08:30:34;;;;;;;10.00;6.40;;;;;;;;;;4813043;29;20219;-81
2021/01/12 08:33:07;;;;;;;9.47;5.50;;;;;;;;;;4811997;29;20269;-81
2021/01/12 08:35:38;;;;;;;11.47;6.33;;;;;;;;;;4812846;29;20706;-81
2021/01/12 08:38:08;;;;;;;11.03;6.97;;;;;;;;;;4820693;29;20220;-81
2021/01/12 08:40:43;;;;;;;10.90;6.53;;;;;;;;;;4829994;29;20215;-81
2021/01/12 08:43:14;;;;;;;11.10;6.47;;;;;;;;;;4814552;29;20243;-81
2021/01/12 08:45:44;;;;;;;12.10;6.47;;;;;;;;;;4794482;29;20210;-81
2021/01/12 08:48:15;;;;;;;9.83;6.17;;;;;;;;;;4805136;29;20222;-80
2021/01/12 08:50:44;;;;;;;11.13;6.67;;;;;;;;;;4811749;29;20223;-81
2021/01/12 08:53:15;;;;;;;11.53;7.40;;;;;;;;;;4799438;29;20717;-81
2021/01/12 08:55:43;;;;;;;12.23;7.03;;;;;;;;;;4824263;29;20242;-81
2021/01/12 08:58:12;;;;;;;11.97;6.90;;;;;;;;;;4802768;29;20261;-80
2021/01/12 09:00:41;;;;;;;13.13;7.83;;;;;;;;;;4803632;29;20216;-83
2021/01/12 09:03:14;;;;;;;15.17;7.67;;;;;;;;;;4819458;29;20242;-80
2021/01/12 09:05:43;;;;;;;13.37;7.47;;;;;;;;;;4815837;29;20216;-82
2021/01/12 09:08:12;;;;;;;13.70;6.90;;;;;;;;;;4803036;29;20211;-81
2021/01/12 09:10:40;;;;;;;11.40;7.23;;;;;;;;;;4807560;29;20215;-81
2021/01/12 09:13:10;;;;;;;16.27;7.93;;;;;;;;;;4823736;29;20642;-80
2021/01/12 09:15:39;;;;;;;11.60;7.27;;;;;;;;;;4810527;29;20215;-81
2021/01/12 09:18:09;;;;;;;14.67;7.33;;;;;;;;;;4821241;29;20216;-81
2021/01/12 09:20:38;;;;;;;11.43;7.00;;;;;;;;;;4830905;29;20231;-80
2021/01/12 09:23:07;;;;;;;10.70;7.20;;;;;;;;;;4820861;29;20238;-81
2021/01/12 09:25:36;;;;;;;13.57;8.17;;;;;;;;;;4821810;29;20334;-80
2021/01/12 09:28:11;;;;;;;14.70;7.93;;;;;;;;;;4803050;29;20220;-80
2021/01/12 09:30:40;;;;;;;11.03;6.40;;;;;;;;;;4804571;29;20226;-81
2021/01/12 09:33:08;;;;;;;13.47;7.20;;;;;;;;;;4822392;29;20255;-80
2021/01/12 09:35:36;;;;;;;11.60;6.90;;;;;;;;;;4818263;29;20216;-79
2021/01/12 09:38:04;;;;;;;11.03;6.70;;;;;;;;;;4836329;29;20217;-79
2021/01/12 09:40:32;;;;;;;13.77;8.03;;;;;;;;;;4830181;29;20219;-80
2021/01/12 09:43:00;;;;;;;10.07;6.47;;;;;;;;;;4829710;29;20231;-80
2021/01/12 09:45:28;;;;;;;10.53;6.90;;;;;;;;;;4826167;29;20216;-80
2021/01/12 09:47:56;;;;;;;11.33;7.33;;;;;;;;;;4815669;29;20227;-79
2021/01/12 09:50:23;;;;;;;11.60;6.70;;;;;;;;;;4818426;29;20200;-80
2021/01/12 09:52:52;;;;;;;12.93;7.03;;;;;;;;;;4804557;29;20610;-80
2021/01/12 09:55:20;;;;;;;10.53;6.47;;;;;;;;;;4803783;29;20707;-79
2021/01/12 09:57:50;;;;;;;11.73;6.70;;;;;;;;;;4804047;29;20235;-80
2021/01/12 10:00:18;;;;;;;12.17;6.87;;;;;;;;;;4803809;29;20222;-80
2021/01/12 10:02:46;;;;;;;12.63;6.20;;;;;;;;;;4789996;29;20239;-79
2021/01/12 10:05:14;;;;;;;10.60;6.37;;;;;;;;;;4800647;29;20211;-80
2021/01/12 10:07:42;;;;;;;11.83;6.50;;;;;;;;;;4805429;29;20219;-81
2021/01/12 10:10:12;;;;;;;9.83;6.77;;;;;;;;;;4805472;29;20869;-81
2021/01/12 10:12:41;;;;;;;12.37;7.03;;;;;;;;;;4822526;29;20235;-80
2021/01/12 10:15:09;;;;;;;10.90;6.20;;;;;;;;;;4809555;29;20230;-80
2021/01/12 10:17:37;;;;;;;11.73;6.37;;;;;;;;;;4823582;29;20610;-80
2021/01/12 10:20:07;;;;;;;12.93;7.17;;;;;;;;;;4807350;29;20643;-81
2021/01/12 10:22:35;;;;;;;9.37;5.93;;;;;;;;;;4805091;29;20239;-80
2021/01/12 10:25:04;;;;;;;10.67;6.17;;;;;;;;;;4803311;29;20704;-81
2021/01/12 10:27:34;;;;;;;12.37;6.53;;;;;;;;;;4801545;29;20208;-81
2021/01/12 10:30:04;;;;;;;13.33;6.53;;;;;;;;;;4804112;29;20236;-81
2021/01/12 10:32:35;;;;;;;11.43;6.07;;;;;;;;;;4798174;29;20628;-80
2021/01/12 10:35:05;;;;;;;10.20;5.63;;;;;;;;;;4800335;29;20212;-81
2021/01/12 10:37:33;;;;;;;11.10;6.57;;;;;;;;;;4802667;29;20699;-81
2021/01/12 10:40:02;;;;;;;11.40;6.60;;;;;;;;;;4818232;29;20212;-80
2021/01/12 10:42:32;;;;;;;11.03;6.77;;;;;;;;;;4801463;29;20234;-81
2021/01/12 10:45:01;;;;;;;10.07;5.97;;;;;;;;;;4800700;29;20230;-81
2021/01/12 10:47:31;;;;;;;13.90;6.13;;;;;;;;;;4797962;29;20220;-81
2021/01/12 10:50:00;;;;;;;10.47;5.50;;;;;;;;;;4800944;29;20216;-79
2021/01/12 10:52:28;;;;;;;9.80;5.70;;;;;;;;;;4800140;29;20595;-81
2021/01/12 10:54:56;;;;;;;8.67;5.17;;;;;;;;;;4803900;29;20219;-81
2021/01/12 10:57:25;;;;;;;11.90;5.87;;;;;;;;;;4819453;29;20219;-81
2021/01/12 10:59:53;;;;;;;9.77;5.40;;;;;;;;;;4830899;29;20227;-81
2021/01/12 11:02:24;;;;;;;8.30;4.80;;;;;;;;;;4832647;29;20212;-81
2021/01/12 11:04:52;;;;;;;9.60;5.33;;;;;;;;;;4828886;29;20220;-81
2021/01/12 11:07:21;;;;;;;10.93;5.83;;;;;;;;;;4843008;29;20215;-81
2021/01/12 11:09:50;;;;;;;10.07;5.40;;;;;;;;;;4806454;29;20223;-80
2021/01/12 11:12:19;;;;;;;10.50;5.67;;;;;;;;;;4800579;29;20220;-80
2021/01/12 11:14:47;;;;;;;10.13;5.73;;;;;;;;;;4807310;29;20582;-81
2021/01/12 11:17:15;;;;;;;8.43;5.60;;;;;;;;;;4819685;29;20212;-79
2021/01/12 11:19:45;;;;;;;10.10;5.63;;;;;;;;;;4788475;29;20232;-79
2021/01/12 11:22:14;;;;;;;9.27;5.30;;;;;;;;;;4806660;29;20219;-79
2021/01/12 11:24:44;;;;;;;10.07;5.73;;;;;;;;;;4804900;29;20594;-78
2021/01/12 11:27:14;;;;;;;10.30;6.00;;;;;;;;;;4806591;29;20226;-79
2021/01/12 11:29:43;;;;;;;13.00;7.27;;;;;;;;;;4822147;29;20376;-80
2021/01/12 11:32:12;;;;;;;10.33;5.77;;;;;;;;;;4822622;29;20627;-80
2021/01/12 11:34:40;;;;;;;12.53;6.63;;;;;;;;;;4830085;29;20225;-81
2021/01/12 11:37:11;;;;;;;14.97;7.20;;;;;;;;;;4828344;29;20225;-79
2021/01/12 11:39:43;;;;;;;12.93;7.13;;;;;;;;;;4821728;29;20617;-79
2021/01/12 11:42:12;;;;;;;17.07;7.90;;;;;;;;;;4836583;29;20212;-80
2021/01/12 11:44:43;;;;;;;15.17;6.93;;;;;;;;;;4842246;29;20219;-80
2021/01/12 11:47:12;;;;;;;15.37;7.77;;;;;;;;;;4825007;29;20207;-80
2021/01/12 11:49:41;;;;;;;17.67;8.60;;;;;;;;;;4843631;29;20193;-79
2021/01/12 11:52:11;;;;;;;15.47;8.03;;;;;;;;;;4810404;29;20766;-79
2021/01/12 11:54:39;;;;;;;18.90;9.50;;;;;;;;;;4812777;29;20240;-79
2021/01/12 11:57:09;;;;;;;17.67;8.90;;;;;;;;;;4818722;29;20227;-79
2021/01/12 11:59:37;;;;;;;16.23;8.33;;;;;;;;;;4807716;29;20216;-80
2021/01/12 12:02:06;;;;;;;18.53;9.50;;;;;;;;;;4812271;29;20220;-80
2021/01/12 12:04:34;;;;;;;19.40;9.70;;;;;;;;;;4816466;29;20215;-80
2021/01/12 12:07:03;;;;;;;18.73;9.50;;;;;;;;;;4814858;29;20227;-80
2021/01/12 12:09:33;;;;;;;17.33;8.93;;;;;;;;;;4829385;29;20208;-80
2021/01/12 12:12:03;;;;;;;21.53;9.90;;;;;;;;;;4803237;29;20216;-80
2021/01/12 12:14:32;;;;;;;18.83;9.33;;;;;;;;;;4814425;29;20241;-80
2021/01/12 12:17:01;;;;;;;22.00;10.10;;;;;;;;;;4813017;29;20223;-80
2021/01/12 12:19:30;;;;;;;22.57;10.63;;;;;;;;;;4814086;29;20239;-80
2021/01/12 12:21:59;;;;;;;22.40;11.40;;;;;;;;;;4816937;29;20246;-80
2021/01/12 12:24:29;;;;;;;20.63;9.83;;;;;;;;;;4814616;29;20242;-80
2021/01/12 12:27:00;;;;;;;19.90;10.40;;;;;;;;;;4813590;29;20215;-80
2021/01/12 12:29:29;;;;;;;22.60;11.00;;;;;;;;;;4828792;29;20221;-80
2021/01/12 12:32:03;;;;;;;21.83;10.67;;;;;;;;;;4820847;29;20320;-80
2021/01/12 12:34:32;;;;;;;21.67;9.83;;;;;;;;;;4816692;29;20240;-79
2021/01/12 12:37:01;;;;;;;21.37;10.07;;;;;;;;;;4828918;29;20215;-80
2021/01/12 12:39:29;;;;;;;20.23;11.00;;;;;;;;;;4810228;29;20223;-80
2021/01/12 12:41:58;;;;;;;21.53;10.23;;;;;;;;;;4821132;29;20220;-81
2021/01/12 12:44:26;;;;;;;21.60;10.83;;;;;;;;;;4816440;29;20225;-80
2021/01/12 12:46:56;;;;;;;20.27;9.60;;;;;;;;;;4833610;29;20219;-81
2021/01/12 12:49:24;;;;;;;18.73;9.57;;;;;;;;;;4832516;29;20215;-80
2021/01/12 12:51:56;;;;;;;20.43;10.63;;;;;;;;;;4824692;29;20230;-81
2021/01/12 12:54:26;;;;;;;20.70;10.00;;;;;;;;;;4826190;29;20240;-80
2021/01/12 12:56:55;;;;;;;22.37;10.57;;;;;;;;;;4838693;29;20234;-82
2021/01/12 12:59:26;;;;;;;18.60;10.20;;;;;;;;;;4815228;29;20227;-81
2021/01/12 13:01:54;;;;;;;19.13;9.30;;;;;;;;;;4815415;29;20213;-81
2021/01/12 13:04:24;;;;;;;18.90;9.40;;;;;;;;;;4823023;29;20242;-80
2021/01/12 13:06:53;;;;;;;20.83;11.07;;;;;;;;;;4842589;29;20201;-80
2021/01/12 13:09:23;;;;;;;27.33;12.37;;;;;;;;;;4820502;29;20210;-80
2021/01/12 13:11:53;;;;;;;21.47;10.27;;;;;;;;;;4816548;29;20224;-80
2021/01/12 13:14:21;;;;;;;22.97;10.90;;;;;;;;;;4824079;29;20596;-80
2021/01/12 13:16:51;;;;;;;23.17;11.53;;;;;;;;;;4802466;29;20219;-81
2021/01/12 13:19:20;;;;;;;22.20;10.50;;;;;;;;;;4824683;29;20216;-80
2021/01/12 13:21:50;;;;;;;20.40;10.90;;;;;;;;;;4818786;29;20204;-80
2021/01/12 13:24:33;;;;;;;23.17;11.17;;;;;;;;;;4821500;29;20656;-81
2021/01/12 13:27:02;;;;;;;22.17;10.67;;;;;;;;;;4813706;29;20210;-80
2021/01/12 13:29:30;;;;;;;20.87;10.57;;;;;;;;;;4813720;29;20590;-80
2021/01/12 13:32:08;;;;;;;21.00;10.73;;;;;;;;;;4823688;29;20219;-80
2021/01/12 13:34:37;;;;;;;22.07;10.93;;;;;;;;;;4821178;29;20745;-80
2021/01/12 13:37:06;;;;;;;25.13;11.87;;;;;;;;;;4835248;29;20229;-80
2021/01/12 13:39:33;;;;;;;21.70;10.73;;;;;;;;;;4823452;29;20217;-80
2021/01/12 13:42:04;;;;;;;20.73;10.10;;;;;;;;;;4823231;29;20238;-81
2021/01/12 13:44:32;;;;;;;21.70;10.03;;;;;;;;;;4839029;29;20213;-81
2021/01/12 13:47:02;;;;;;;22.50;10.93;;;;;;;;;;4840403;29;20221;-80
2021/01/12 13:49:30;;;;;;;22.33;10.87;;;;;;;;;;4830657;29;20215;-82
2021/01/12 13:51:59;;;;;;;24.20;11.40;;;;;;;;;;4842859;29;20188;-80
2021/01/12 13:54:29;;;;;;;19.77;10.70;;;;;;;;;;4828073;29;20235;-80
2021/01/12 13:56:59;;;;;;;18.57;9.97;;;;;;;;;;4819515;29;20188;-80
2021/01/12 13:59:32;;;;;;;22.43;10.90;;;;;;;;;;4840865;29;20200;-80
2021/01/12 14:02:02;;;;;;;16.93;9.40;;;;;;;;;;4842010;29;20219;-80
2021/01/12 14:04:31;;;;;;;22.17;10.80;;;;;;;;;;4805702;29;20242;-81
2021/01/12 14:06:59;;;;;;;18.27;9.57;;;;;;;;;;4815826;29;20211;-81
2021/01/12 14:09:27;;;;;;;19.50;10.07;;;;;;;;;;4819218;29;20233;-81
2021/01/12 14:11:55;;;;;;;20.77;10.03;;;;;;;;;;4834197;29;20195;-81
2021/01/12 14:14:24;;;;;;;19.57;9.50;;;;;;;;;;4832822;29;20878;-79
2021/01/12 14:16:58;;;;;;;20.83;9.73;;;;;;;;;;4816134;29;20236;-79
2021/01/12 14:19:28;;;;;;;20.20;9.00;;;;;;;;;;4836363;29;20214;-80
2021/01/12 14:22:00;;;;;;;17.30;8.27;;;;;;;;;;4823786;29;20199;-80
2021/01/12 14:24:31;;;;;;;17.63;8.83;;;;;;;;;;4842336;29;20211;-80
2021/01/12 14:26:58;;;;;;;18.47;8.70;;;;;;;;;;4841093;29;20223;-79
2021/01/12 14:29:27;;;;;;;17.10;8.83;;;;;;;;;;4810867;29;20194;-79
2021/01/12 14:31:56;;;;;;;17.00;8.53;;;;;;;;;;4824287;29;20211;-79
2021/01/12 14:34:25;;;;;;;14.53;8.20;;;;;;;;;;4817078;29;20540;-78
2021/01/12 14:36:55;;;;;;;16.83;9.40;;;;;;;;;;4829672;29;20577;-79